Time;durP1;ratioP1;P1;durP2;ratioP2;P2;SDS_P1;SDS_P2;PMS_P1;PMS_P2;Temp;Humidity;BMP_temperature;BMP_pressure;BME280_temperature;BME280_humidity;BME280_pressure;Samples;Min_cycle;Max_cycle;Signal;HPM_P1;HPM_P2
2022/04/07 00:01:17;;;;;;;5.77;3.40;;;11.80;97.10;;;;;;5094444;28;20433;-43
2022/04/07 00:03:45;;;;;;;5.30;3.30;;;11.80;97.10;;;;;;5093986;28;20434;-44
2022/04/07 00:06:12;;;;;;;4.23;3.20;;;11.70;97.40;;;;;;5093599;28;20438;-41
2022/04/07 00:08:40;;;;;;;6.30;3.90;;;11.80;97.50;;;;;;5093485;28;20549;-43
2022/04/07 00:11:07;;;;;;;4.10;3.17;;;11.70;97.50;;;;;;5094527;28;20930;-42
2022/04/07 00:13:34;;;;;;;8.10;4.40;;;11.50;97.40;;;;;;5094077;28;20908;-43
2022/04/07 00:16:01;;;;;;;7.53;3.50;;;11.80;97.50;;;;;;5093727;28;20527;-44
2022/04/07 00:18:28;;;;;;;9.00;3.37;;;11.70;97.60;;;;;;5093143;28;20457;-42
2022/04/07 00:20:56;;;;;;;5.00;3.43;;;11.70;97.70;;;;;;5093702;28;20434;-42
2022/04/07 00:23:23;;;;;;;5.03;3.63;;;11.60;97.70;;;;;;5093625;28;20434;-42
2022/04/07 00:25:50;;;;;;;4.43;3.07;;;11.60;97.90;;;;;;5093584;28;20889;-42
2022/04/07 00:28:17;;;;;;;4.37;3.43;;;11.60;97.90;;;;;;5093264;28;20481;-45
2022/04/07 00:30:44;;;;;;;7.07;3.43;;;11.60;97.90;;;;;;5093098;28;20433;-42
2022/04/07 00:33:11;;;;;;;11.07;3.57;;;11.60;97.90;;;;;;5093251;28;20495;-42
2022/04/07 00:35:38;;;;;;;6.37;3.47;;;11.60;98.00;;;;;;5093176;28;20428;-43
2022/04/07 00:38:06;;;;;;;6.80;3.33;;;11.60;98.00;;;;;;5093244;28;20941;-46
2022/04/07 00:40:33;;;;;;;3.80;2.70;;;11.60;98.20;;;;;;5092819;28;20435;-41
2022/04/07 00:42:59;;;;;;;4.33;3.90;;;11.60;98.20;;;;;;5093122;28;20431;-42
2022/04/07 00:45:26;;;;;;;5.80;3.00;;;11.50;98.10;;;;;;5093160;28;20434;-42
2022/04/07 00:47:53;;;;;;;8.57;3.97;;;11.50;98.20;;;;;;5092749;28;20986;-45
2022/04/07 00:50:21;;;;;;;6.43;3.53;;;11.30;98.20;;;;;;5092552;28;20430;-45
2022/04/07 00:52:50;;;;;;;8.13;3.40;;;11.50;98.40;;;;;;5092903;28;20486;-42
2022/04/07 00:55:20;;;;;;;7.20;2.63;;;11.50;98.40;;;;;;5076628;28;20476;-43
2022/04/07 00:57:47;;;;;;;4.97;3.23;;;11.40;98.50;;;;;;5092837;28;20472;-43
2022/04/07 01:00:15;;;;;;;5.80;2.90;;;11.40;98.60;;;;;;5092439;28;20929;-44
2022/04/07 01:02:42;;;;;;;6.10;3.00;;;11.40;98.60;;;;;;5092815;28;20465;-44
2022/04/07 01:05:10;;;;;;;7.50;3.90;;;11.40;98.50;;;;;;5093009;28;20786;-43
2022/04/07 01:07:39;;;;;;;7.93;3.00;;;11.30;98.60;;;;;;5092649;28;20456;-43
2022/04/07 01:10:08;;;;;;;7.03;3.93;;;11.30;98.70;;;;;;5092262;28;20429;-41
2022/04/07 01:12:36;;;;;;;5.60;3.23;;;11.30;98.80;;;;;;5092730;28;20811;-43
2022/04/07 01:15:04;;;;;;;5.13;3.40;;;11.20;98.90;;;;;;5092535;28;20788;-42
2022/04/07 01:17:31;;;;;;;6.07;3.20;;;11.20;98.90;;;;;;5091687;28;20805;-41
2022/04/07 01:19:58;;;;;;;9.17;3.33;;;11.20;99.00;;;;;;5073772;28;20809;-43
2022/04/07 01:22:25;;;;;;;5.90;2.90;;;11.20;99.00;;;;;;5092476;28;20932;-44
2022/04/07 01:24:53;;;;;;;4.40;3.00;;;11.20;99.10;;;;;;5092441;28;20433;-43
2022/04/07 01:27:20;;;;;;;4.10;3.30;;;11.20;99.10;;;;;;5092155;28;20496;-43
2022/04/07 01:29:47;;;;;;;6.77;3.80;;;11.00;99.00;;;;;;5091725;28;20549;-44
2022/04/07 01:32:18;;;;;;;4.17;3.20;;;11.10;99.00;;;;;;5092253;28;20470;-43
2022/04/07 01:34:45;;;;;;;5.90;3.53;;;11.30;99.00;;;;;;5092243;28;20516;-44
2022/04/07 01:37:12;;;;;;;4.77;3.00;;;11.30;99.20;;;;;;5092187;28;20449;-43
2022/04/07 01:39:42;;;;;;;8.67;3.70;;;11.30;99.20;;;;;;5091752;28;20795;-44
2022/04/07 01:42:12;;;;;;;9.23;4.20;;;11.30;99.20;;;;;;5091996;28;20435;-44
2022/04/07 01:44:45;;;;;;;4.73;3.67;;;11.30;99.20;;;;;;5092175;28;20437;-43
2022/04/07 01:47:13;;;;;;;5.00;3.30;;;11.20;99.30;;;;;;5092072;28;20449;-43
2022/04/07 01:49:43;;;;;;;4.73;4.20;;;11.20;99.20;;;;;;5091698;28;20503;-44
2022/04/07 01:52:13;;;;;;;6.57;4.20;;;11.20;99.40;;;;;;5092080;28;20436;-44
2022/04/07 01:54:42;;;;;;;8.00;3.60;;;11.10;99.40;;;;;;5091851;28;20451;-43
2022/04/07 01:57:11;;;;;;;7.30;4.67;;;11.10;99.50;;;;;;5070156;28;20993;-43
2022/04/07 01:59:38;;;;;;;9.20;4.40;;;11.10;99.70;;;;;;5071249;28;20471;-43
2022/04/07 02:02:05;;;;;;;4.97;4.07;;;11.10;99.80;;;;;;5071732;28;20434;-43
2022/04/07 02:04:31;;;;;;;6.00;4.30;;;11.10;99.90;;;;;;5071670;28;20457;-45
2022/04/07 02:06:58;;;;;;;6.90;4.40;;;11.10;99.90;;;;;;5071465;28;20475;-44
2022/04/07 02:09:25;;;;;;;7.17;4.10;;;11.20;99.90;;;;;;5071059;28;21057;-43
2022/04/07 02:11:51;;;;;;;7.00;3.67;;;11.20;99.90;;;;;;5071628;28;20441;-45
2022/04/07 02:14:19;;;;;;;13.40;5.67;;;11.20;99.90;;;;;;5071665;28;20438;-43
2022/04/07 02:16:46;;;;;;;8.80;6.10;;;11.20;99.90;;;;;;5071459;28;20442;-44
2022/04/07 02:19:12;;;;;;;8.57;5.03;;;11.20;99.90;;;;;;5071113;28;20991;-43
2022/04/07 02:21:39;;;;;;;8.83;4.90;;;11.20;99.90;;;;;;5071428;28;20841;-43
2022/04/07 02:24:06;;;;;;;6.87;4.40;;;11.20;99.90;;;;;;5071795;28;20441;-42
2022/04/07 02:26:33;;;;;;;9.27;5.10;;;11.20;99.90;;;;;;5071544;28;20465;-44
2022/04/07 02:28:59;;;;;;;10.67;5.00;;;11.20;99.90;;;;;;5074090;28;20481;-43
2022/04/07 02:31:27;;;;;;;6.40;4.53;;;11.20;99.90;;;;;;5075754;28;20470;-44
2022/04/07 02:33:54;;;;;;;8.00;5.07;;;11.10;99.90;;;;;;5075679;28;20819;-46
2022/04/07 02:36:20;;;;;;;6.60;4.43;;;11.10;99.90;;;;;;5075490;28;20918;-45
2022/04/07 02:38:47;;;;;;;7.50;4.67;;;11.00;99.90;;;;;;5075139;28;20973;-43
2022/04/07 02:41:13;;;;;;;8.07;5.30;;;11.00;99.90;;;;;;5075288;28;20554;-44
2022/04/07 02:43:40;;;;;;;9.13;5.23;;;10.90;99.90;;;;;;5075294;28;20457;-46
2022/04/07 02:46:06;;;;;;;6.60;4.57;;;10.90;99.90;;;;;;5075141;28;20437;-45
2022/04/07 02:48:34;;;;;;;6.30;4.90;;;10.90;99.90;;;;;;5074825;28;20465;-43
2022/04/07 02:51:02;;;;;;;7.47;5.03;;;10.80;99.90;;;;;;5075214;28;20917;-44
2022/04/07 02:53:29;;;;;;;6.63;5.40;;;10.80;99.90;;;;;;5059342;28;20439;-44
2022/04/07 02:55:55;;;;;;;7.80;5.47;;;10.80;99.90;;;;;;5084469;28;20440;-43
2022/04/07 02:58:23;;;;;;;6.57;5.10;;;10.70;99.90;;;;;;5095028;28;20456;-44
2022/04/07 03:00:49;;;;;;;7.30;5.00;;;10.70;99.90;;;;;;5095119;28;20428;-43
2022/04/07 03:03:16;;;;;;;6.00;5.27;;;10.70;99.90;;;;;;5095198;28;20437;-42
2022/04/07 03:05:43;;;;;;;8.23;6.40;;;10.60;99.90;;;;;;5095011;28;20469;-42
2022/04/07 03:08:12;;;;;;;8.40;5.63;;;10.70;99.90;;;;;;5095131;28;20453;-43
2022/04/07 03:10:39;;;;;;;8.77;5.80;;;10.60;99.90;;;;;;5095164;28;20476;-44
2022/04/07 03:13:05;;;;;;;9.73;5.60;;;10.60;99.90;;;;;;5095294;28;20433;-41
2022/04/07 03:15:32;;;;;;;8.67;5.80;;;10.50;99.90;;;;;;5095053;28;20443;-42
2022/04/07 03:17:58;;;;;;;8.57;5.50;;;10.60;99.90;;;;;;5094920;28;20449;-42
2022/04/07 03:20:25;;;;;;;8.60;5.00;;;10.50;99.90;;;;;;5094689;28;20429;-44
2022/04/07 03:22:53;;;;;;;5.77;5.20;;;10.50;99.90;;;;;;5095352;28;20440;-43
2022/04/07 03:25:19;;;;;;;7.33;5.43;;;10.40;99.90;;;;;;5094864;28;20437;-43
2022/04/07 03:27:46;;;;;;;9.90;5.13;;;10.50;99.90;;;;;;5094879;28;20475;-42
2022/04/07 03:30:13;;;;;;;9.23;5.17;;;10.40;99.90;;;;;;5094576;28;20477;-43
2022/04/07 03:32:39;;;;;;;7.90;5.33;;;10.40;99.90;;;;;;5095606;28;20429;-44
2022/04/07 03:35:06;;;;;;;8.40;6.87;;;10.40;99.90;;;;;;5095165;28;20941;-44
2022/04/07 03:37:34;;;;;;;9.30;5.60;;;10.50;99.90;;;;;;5095101;28;20980;-44
2022/04/07 03:40:03;;;;;;;7.60;5.20;;;10.50;99.90;;;;;;5093806;28;20432;-44
2022/04/07 03:42:29;;;;;;;8.30;5.37;;;10.50;99.90;;;;;;5094896;28;20448;-43
2022/04/07 03:44:56;;;;;;;7.40;6.10;;;10.50;99.90;;;;;;5094487;28;20440;-43
2022/04/07 03:47:22;;;;;;;11.63;5.87;;;10.50;99.90;;;;;;5094611;28;20870;-44
2022/04/07 03:49:49;;;;;;;7.73;5.37;;;10.50;99.90;;;;;;5094424;28;20525;-43
2022/04/07 03:52:16;;;;;;;6.03;5.03;;;10.40;99.90;;;;;;5094858;28;20429;-44
2022/04/07 03:54:43;;;;;;;10.90;5.97;;;10.40;99.90;;;;;;5094528;28;20445;-43
2022/04/07 03:57:11;;;;;;;7.67;4.97;;;10.50;99.90;;;;;;5094422;28;20465;-44
2022/04/07 03:59:39;;;;;;;5.90;4.77;;;10.40;99.90;;;;;;5094046;28;20432;-42
2022/04/07 04:02:08;;;;;;;7.60;5.43;;;10.40;99.90;;;;;;5094561;28;20428;-44
2022/04/07 04:04:34;;;;;;;9.63;5.10;;;10.50;99.90;;;;;;5094652;28;20444;-45
2022/04/07 04:07:01;;;;;;;6.90;5.10;;;10.40;99.90;;;;;;5094648;28;20457;-43
2022/04/07 04:09:28;;;;;;;6.00;4.73;;;10.50;99.90;;;;;;5094110;28;20472;-43
2022/04/07 04:11:54;;;;;;;7.80;4.87;;;10.50;99.90;;;;;;5094441;28;20809;-44
2022/04/07 04:14:22;;;;;;;7.87;4.83;;;10.50;99.90;;;;;;5094365;28;20436;-43
2022/04/07 04:16:49;;;;;;;10.33;5.50;;;10.50;99.90;;;;;;5094143;28;20445;-42
2022/04/07 04:19:16;;;;;;;9.43;4.90;;;10.60;99.90;;;;;;5093616;28;20434;-44
2022/04/07 04:21:42;;;;;;;10.63;5.37;;;10.60;99.90;;;;;;5094298;28;20464;-45
2022/04/07 04:24:11;;;;;;;11.87;6.50;;;10.60;99.90;;;;;;5094328;28;20440;-43
2022/04/07 04:26:37;;;;;;;7.37;5.00;;;10.70;99.90;;;;;;5093981;28;20472;-46
2022/04/07 04:29:04;;;;;;;9.20;5.30;;;10.70;99.90;;;;;;5093970;28;20956;-43
2022/04/07 04:31:32;;;;;;;7.57;5.30;;;10.70;99.90;;;;;;5093882;28;20805;-44
2022/04/07 04:33:59;;;;;;;6.97;4.43;;;10.70;99.90;;;;;;5094186;28;20436;-45
2022/04/07 04:36:26;;;;;;;9.03;5.30;;;10.70;99.90;;;;;;5094057;28;20929;-43
2022/04/07 04:38:52;;;;;;;7.73;5.00;;;10.80;99.90;;;;;;5093423;28;20945;-43
2022/04/07 04:41:19;;;;;;;11.43;4.97;;;10.80;99.90;;;;;;5093276;28;20428;-45
2022/04/07 04:43:46;;;;;;;5.30;4.80;;;10.80;99.90;;;;;;5093689;28;20432;-44
2022/04/07 04:46:12;;;;;;;5.70;4.80;;;10.90;99.90;;;;;;5093837;28;20425;-44
2022/04/07 04:48:40;;;;;;;6.83;4.23;;;10.90;99.90;;;;;;5093620;28;20446;-42
2022/04/07 04:51:07;;;;;;;5.97;4.40;;;10.90;99.90;;;;;;5092887;28;20484;-43
2022/04/07 04:53:34;;;;;;;5.83;4.83;;;10.90;99.90;;;;;;5093420;28;20429;-43
2022/04/07 04:56:00;;;;;;;5.17;4.50;;;11.00;99.90;;;;;;5093471;28;20449;-43
2022/04/07 04:58:27;;;;;;;7.00;4.67;;;10.90;99.90;;;;;;5092917;28;20826;-43
2022/04/07 05:00:54;;;;;;;9.90;4.90;;;11.00;99.90;;;;;;5093669;28;20437;-45
2022/04/07 05:03:20;;;;;;;9.73;4.93;;;11.00;99.90;;;;;;5093438;28;20433;-44
2022/04/07 05:05:48;;;;;;;6.30;4.70;;;11.10;99.90;;;;;;5093250;28;20777;-42
2022/04/07 05:08:15;;;;;;;5.93;4.03;;;11.00;99.90;;;;;;5092893;28;20960;-42
2022/04/07 05:10:42;;;;;;;5.37;4.40;;;11.00;99.90;;;;;;5092475;28;20543;-47
2022/04/07 05:13:08;;;;;;;4.83;3.80;;;11.10;99.90;;;;;;5092650;28;20432;-44
2022/04/07 05:15:35;;;;;;;7.47;5.40;;;11.10;99.90;;;;;;5092676;28;20430;-43
2022/04/07 05:18:02;;;;;;;8.80;4.10;;;11.10;99.90;;;;;;5092210;28;20453;-44
2022/04/07 05:20:29;;;;;;;10.73;4.53;;;11.10;99.90;;;;;;5092165;28;20425;-43
2022/04/07 05:22:57;;;;;;;7.33;4.37;;;11.20;99.90;;;;;;5092494;28;20892;-44
2022/04/07 05:25:23;;;;;;;5.10;4.60;;;11.20;99.90;;;;;;5092288;28;20905;-43
2022/04/07 05:27:50;;;;;;;5.43;4.73;;;11.20;99.90;;;;;;5112461;22;20493;-52
2022/04/07 05:30:17;;;;;;;8.13;3.97;;;11.30;99.90;;;;;;5091478;28;20871;-53
2022/04/07 05:32:45;;;;;;;7.23;4.43;;;11.30;99.90;;;;;;5091614;28;20933;-53
2022/04/07 05:35:12;;;;;;;7.00;4.40;;;11.30;99.90;;;;;;5091857;28;20433;-53
2022/04/07 05:37:38;;;;;;;8.70;4.73;;;11.20;99.90;;;;;;5091551;28;20465;-52
2022/04/07 05:40:11;;;;;;;6.60;4.30;;;11.20;99.90;;;;;;5091367;28;20396;-53
2022/04/07 05:42:38;;;;;;;8.37;4.50;;;11.30;99.90;;;;;;5092153;28;20858;-53
2022/04/07 05:45:06;;;;;;;5.67;4.83;;;11.30;99.90;;;;;;5091576;28;20544;-53
2022/04/07 05:47:39;;;;;;;8.10;4.20;;;11.30;99.90;;;;;;5091317;28;20819;-52
2022/04/07 05:50:07;;;;;;;4.13;3.37;;;11.30;99.90;;;;;;5090943;28;20517;-53
2022/04/07 05:52:33;;;;;;;7.33;3.87;;;11.40;99.90;;;;;;5072930;28;20442;-52
2022/04/07 05:55:00;;;;;;;10.73;4.70;;;11.40;99.90;;;;;;5091241;28;20449;-53
2022/04/07 05:57:30;;;;;;;6.70;5.83;;;11.40;99.90;;;;;;5091467;28;20985;-53
2022/04/07 06:00:03;;;;;;;5.40;3.60;;;11.50;99.90;;;;;;5091378;28;20531;-53
2022/04/07 06:02:31;;;;;;;5.53;4.33;;;10.80;99.90;;;;;;5091332;28;20419;-53
2022/04/07 06:04:57;;;;;;;5.10;3.93;;;11.60;99.90;;;;;;5073231;28;20441;-53
2022/04/07 06:07:24;;;;;;;5.00;3.70;;;11.60;99.90;;;;;;5072861;28;20980;-53
2022/04/07 06:09:51;;;;;;;6.57;3.60;;;11.70;99.90;;;;;;5091199;28;20473;-53
2022/04/07 06:12:17;;;;;;;5.00;3.90;;;11.70;99.90;;;;;;5091214;28;20528;-53
2022/04/07 06:14:46;;;;;;;5.03;3.53;;;11.80;99.90;;;;;;5091270;28;20437;-54
2022/04/07 06:17:12;;;;;;;7.77;4.53;;;11.90;99.90;;;;;;5091098;28;21022;-53
2022/04/07 06:19:39;;;;;;;9.07;3.73;;;11.80;99.90;;;;;;5091035;28;20457;-52
2022/04/07 06:22:07;;;;;;;4.97;3.77;;;11.90;99.90;;;;;;5091188;28;20426;-52
2022/04/07 06:24:33;;;;;;;9.70;5.20;;;12.00;99.90;;;;;;5091080;28;20440;-53
2022/04/07 06:27:00;;;;;;;5.97;4.10;;;12.10;99.90;;;;;;5090941;28;20462;-53
2022/04/07 06:29:27;;;;;;;5.77;4.20;;;12.20;99.90;;;;;;5090737;28;20432;-53
2022/04/07 06:31:55;;;;;;;4.97;3.70;;;12.20;99.90;;;;;;5090972;28;20426;-53
2022/04/07 06:34:21;;;;;;;4.43;3.97;;;12.20;99.90;;;;;;5091051;28;20437;-53
2022/04/07 06:36:48;;;;;;;7.43;4.07;;;12.30;99.90;;;;;;5090967;28;20429;-53
2022/04/07 06:39:15;;;;;;;6.83;3.40;;;12.30;99.90;;;;;;5090487;28;20429;-53
2022/04/07 06:41:41;;;;;;;4.47;3.43;;;12.40;99.90;;;;;;5091354;28;20452;-53
2022/04/07 06:44:08;;;;;;;4.97;2.90;;;12.40;99.90;;;;;;5090958;28;20469;-53
2022/04/07 06:46:34;;;;;;;8.70;3.30;;;12.40;99.90;;;;;;5091096;28;20433;-53
2022/04/07 06:49:03;;;;;;;10.77;4.70;;;12.40;99.90;;;;;;5072172;28;20569;-53
2022/04/07 06:51:30;;;;;;;8.37;4.00;;;12.50;99.90;;;;;;5090869;28;20885;-54
2022/04/07 06:53:57;;;;;;;6.50;3.60;;;12.50;99.90;;;;;;5090984;28;20441;-54
2022/04/07 06:56:23;;;;;;;7.00;3.70;;;12.50;99.90;;;;;;5090646;28;20469;-54
2022/04/07 06:58:50;;;;;;;5.43;4.00;;;12.60;99.90;;;;;;5090227;28;20526;-53
2022/04/07 07:01:17;;;;;;;3.40;2.83;;;12.60;99.90;;;;;;5090856;28;20529;-52
2022/04/07 07:03:43;;;;;;;10.67;3.37;;;12.60;99.90;;;;;;5090670;28;20430;-52
2022/04/07 07:06:11;;;;;;;4.17;3.20;;;12.70;99.90;;;;;;5090717;28;20876;-53
2022/04/07 07:08:38;;;;;;;4.27;2.90;;;12.80;99.90;;;;;;5090388;28;20451;-52
2022/04/07 07:11:04;;;;;;;4.60;3.80;;;12.80;99.90;;;;;;5090698;28;20477;-52
2022/04/07 07:13:32;;;;;;;7.93;3.50;;;12.80;99.90;;;;;;5090569;28;20778;-52
2022/04/07 07:15:59;;;;;;;6.07;3.70;;;12.80;99.90;;;;;;5093039;28;20862;-53
2022/04/07 07:18:26;;;;;;;5.47;3.13;;;12.80;99.90;;;;;;5093461;28;20462;-52
2022/04/07 07:20:53;;;;;;;6.03;3.17;;;12.80;99.90;;;;;;5095017;28;20420;-53
2022/04/07 07:23:20;;;;;;;4.70;3.13;;;12.90;99.90;;;;;;5094559;28;20437;-52
2022/04/07 07:25:47;;;;;;;4.67;3.60;;;12.80;99.90;;;;;;5094015;28;20465;-52
2022/04/07 07:28:14;;;;;;;4.70;3.20;;;13.00;99.90;;;;;;5094026;28;20444;-53
2022/04/07 07:30:41;;;;;;;4.10;2.90;;;13.10;99.90;;;;;;5093739;28;20883;-52
2022/04/07 07:33:09;;;;;;;4.50;2.93;;;13.30;99.90;;;;;;5093477;28;20428;-53
2022/04/07 07:35:36;;;;;;;3.17;2.73;;;13.40;99.90;;;;;;5093751;28;20535;-52
2022/04/07 07:38:04;;;;;;;4.40;2.83;;;13.40;99.90;;;;;;5093565;28;20987;-52
2022/04/07 07:40:33;;;;;;;7.93;2.70;;;13.50;99.80;;;;;;5093072;28;20421;-52
2022/04/07 07:43:02;;;;;;;4.80;3.77;;;13.50;99.70;;;;;;5093744;28;20436;-52
2022/04/07 07:45:30;;;;;;;5.57;3.10;;;13.50;99.30;;;;;;5093894;28;20443;-53
2022/04/07 07:47:57;;;;;;;7.10;2.97;;;13.50;99.20;;;;;;5075427;28;20555;-53
2022/04/07 07:50:23;;;;;;;4.40;3.10;;;13.50;99.10;;;;;;5093185;28;20992;-53
2022/04/07 07:52:50;;;;;;;5.37;3.10;;;13.60;99.10;;;;;;5093254;28;20996;-52
2022/04/07 07:55:18;;;;;;;4.63;2.80;;;13.70;98.60;;;;;;5093376;28;20475;-53
2022/04/07 07:57:46;;;;;;;5.90;2.50;;;13.80;98.50;;;;;;5093630;28;20463;-53
2022/04/07 08:00:16;;;;;;;6.93;1.90;;;14.00;98.30;;;;;;5093144;28;20436;-53
2022/04/07 08:02:44;;;;;;;3.93;2.47;;;14.10;97.60;;;;;;5075401;28;20441;-53
2022/04/07 08:05:11;;;;;;;5.90;2.97;;;14.00;97.20;;;;;;5093369;28;20447;-52
2022/04/07 08:07:39;;;;;;;3.30;2.07;;;14.20;97.00;;;;;;5092748;28;20464;-53
2022/04/07 08:10:07;;;;;;;4.80;2.60;;;14.20;97.00;;;;;;5092809;28;20468;-52
2022/04/07 08:12:34;;;;;;;5.60;2.20;;;14.20;97.20;;;;;;5093252;28;20439;-52
2022/04/07 08:15:02;;;;;;;12.60;2.50;;;14.10;96.80;;;;;;5093383;28;20437;-52
2022/04/07 08:17:29;;;;;;;4.37;2.77;;;14.20;97.00;;;;;;5092969;28;20489;-52
2022/04/07 08:19:55;;;;;;;4.53;2.90;;;14.30;97.10;;;;;;5092715;28;20450;-52
2022/04/07 08:22:22;;;;;;;3.10;2.10;;;14.30;97.10;;;;;;5092309;28;20447;-52
2022/04/07 08:24:49;;;;;;;5.70;2.00;;;14.40;97.10;;;;;;5074715;28;20452;-52
2022/04/07 08:27:15;;;;;;;4.40;2.17;;;14.40;97.10;;;;;;5092424;28;20501;-52
2022/04/07 08:29:42;;;;;;;2.33;2.10;;;14.40;97.10;;;;;;5091990;28;20428;-52
2022/04/07 08:32:10;;;;;;;4.17;2.30;;;14.50;96.70;;;;;;5092572;28;20490;-53
2022/04/07 08:34:37;;;;;;;6.17;2.30;;;14.50;96.60;;;;;;5092652;28;20459;-52
2022/04/07 08:37:04;;;;;;;3.43;2.30;;;14.60;96.40;;;;;;5092394;28;20463;-51
2022/04/07 08:39:31;;;;;;;2.60;1.53;;;14.60;96.20;;;;;;5092254;28;20949;-54
2022/04/07 08:41:59;;;;;;;4.40;2.20;;;14.70;95.70;;;;;;5092180;28;20429;-53
2022/04/07 08:44:31;;;;;;;4.47;2.17;;;14.70;95.80;;;;;;5092243;28;20439;-52
2022/04/07 08:46:58;;;;;;;2.87;1.90;;;14.90;95.60;;;;;;5092261;28;20464;-52
2022/04/07 08:49:29;;;;;;;1.70;1.40;;;15.00;95.10;;;;;;5092349;28;20440;-51
2022/04/07 08:51:56;;;;;;;2.70;1.90;;;15.00;95.10;;;;;;5073987;28;20503;-53
2022/04/07 08:54:23;;;;;;;2.97;1.80;;;15.20;95.00;;;;;;5091527;28;20429;-52
2022/04/07 08:56:50;;;;;;;7.47;2.03;;;15.30;94.90;;;;;;5090656;28;21005;-52
2022/04/07 08:59:17;;;;;;;5.60;1.63;;;15.40;94.50;;;;;;5091746;28;20445;-52
2022/04/07 09:01:44;;;;;;;1.70;1.40;;;15.40;94.40;;;;;;5092153;28;20433;-52
2022/04/07 09:04:12;;;;;;;2.80;1.60;;;15.40;94.30;;;;;;5092193;28;20527;-53
2022/04/07 09:06:41;;;;;;;4.00;2.23;;;15.50;93.50;;;;;;5091918;28;20843;-52
2022/04/07 09:09:14;;;;;;;4.10;1.60;;;15.50;94.00;;;;;;5091593;28;20535;-53
2022/04/07 09:11:41;;;;;;;2.30;1.30;;;15.40;93.80;;;;;;5091334;28;20468;-53
2022/04/07 09:14:10;;;;;;;1.90;1.60;;;15.50;93.90;;;;;;5091035;28;20447;-52
2022/04/07 09:16:38;;;;;;;3.97;1.40;;;15.50;93.90;;;;;;5091700;28;20946;-52
2022/04/07 09:19:06;;;;;;;3.57;1.57;;;15.50;93.60;;;;;;5091376;28;20942;-52
2022/04/07 09:21:34;;;;;;;4.20;1.30;;;15.50;93.70;;;;;;5091816;28;20437;-53
2022/04/07 09:24:07;;;;;;;4.40;1.13;;;15.70;93.60;;;;;;5073628;28;20514;-53
2022/04/07 09:26:35;;;;;;;2.53;1.60;;;15.80;93.30;;;;;;5091858;28;20516;-52
2022/04/07 09:29:07;;;;;;;3.80;1.30;;;15.90;93.00;;;;;;5091494;28;20602;-52
2022/04/07 09:31:37;;;;;;;1.70;0.93;;;15.80;92.70;;;;;;5091726;28;20485;-53
2022/04/07 09:34:04;;;;;;;1.87;1.20;;;15.90;92.80;;;;;;5091626;28;20928;-52
2022/04/07 09:36:30;;;;;;;3.60;3.10;;;16.00;93.00;;;;;;5091480;28;20440;-53
2022/04/07 09:38:58;;;;;;;4.90;1.67;;;16.00;92.70;;;;;;5090360;28;20798;-52
2022/04/07 09:41:29;;;;;;;3.73;1.83;;;16.10;92.50;;;;;;5091104;28;20574;-51
2022/04/07 09:43:58;;;;;;;4.00;1.47;;;16.00;92.40;;;;;;5091304;28;20433;-52
2022/04/07 09:46:27;;;;;;;2.47;1.03;;;16.00;92.20;;;;;;5073121;28;20521;-52
2022/04/07 09:49:04;;;;;;;7.53;1.43;;;16.00;91.90;;;;;;5090834;28;20453;-52
2022/04/07 09:51:37;;;;;;;3.10;1.43;;;16.10;91.80;;;;;;5090839;28;20515;-52
2022/04/07 09:54:04;;;;;;;2.90;1.30;;;16.10;91.70;;;;;;5091195;28;20442;-53
2022/04/07 09:56:32;;;;;;;2.80;1.87;;;16.10;91.30;;;;;;5090940;28;20448;-53
2022/04/07 09:58:58;;;;;;;3.93;1.33;;;16.00;91.60;;;;;;5091292;28;20436;-52
2022/04/07 10:01:25;;;;;;;5.47;1.47;;;16.00;91.70;;;;;;5091542;28;20435;-52
2022/04/07 10:03:52;;;;;;;1.90;1.30;;;16.10;91.60;;;;;;5091400;28;20445;-53
2022/04/07 10:06:20;;;;;;;4.30;1.30;;;16.10;91.60;;;;;;5090980;28;20441;-53
2022/04/07 10:08:50;;;;;;;4.53;1.20;;;16.10;91.50;;;;;;5090876;28;20460;-53
2022/04/07 10:11:17;;;;;;;2.10;0.90;;;16.10;91.30;;;;;;5091014;28;20566;-52
2022/04/07 10:13:46;;;;;;;3.00;1.57;;;16.00;91.10;;;;;;5091406;28;20437;-53
2022/04/07 10:16:16;;;;;;;3.03;1.17;;;15.90;91.00;;;;;;5091065;28;20468;-53
2022/04/07 10:18:47;;;;;;;1.50;0.97;;;15.90;91.10;;;;;;5090820;28;20906;-53
2022/04/07 10:21:28;;;;;;;1.67;1.00;;;16.10;91.30;;;;;;5090848;28;20443;-53
2022/04/07 10:24:11;;;;;;;3.33;1.57;;;16.20;90.80;;;;;;5090899;28;20436;-53
2022/04/07 10:26:41;;;;;;;2.53;1.40;;;16.20;90.70;;;;;;5090601;28;20948;-53
2022/04/07 10:29:19;;;;;;;5.20;1.00;;;16.30;90.50;;;;;;5090763;28;20434;-54
2022/04/07 10:32:18;;;;;;;3.10;1.30;;;16.30;90.30;;;;;;5090983;28;20556;-52
2022/04/07 10:34:54;;;;;;;2.93;1.33;;;16.20;90.20;;;;;;5091198;28;20932;-53
2022/04/07 10:37:29;;;;;;;4.47;1.50;;;16.20;90.40;;;;;;5090883;28;20448;-53
2022/04/07 10:39:56;;;;;;;2.60;1.07;;;16.10;90.40;;;;;;5072463;28;20553;-52
2022/04/07 10:43:10;;;;;;;2.97;1.40;;;16.10;90.50;;;;;;5090992;28;20921;-53
2022/04/07 10:45:39;;;;;;;6.60;1.30;;;16.10;90.30;;;;;;5090928;28;20933;-53
2022/04/07 10:48:27;;;;;;;4.30;1.23;;;16.10;90.70;;;;;;5091134;28;20456;-53
2022/04/07 10:50:56;;;;;;;3.50;2.30;;;16.00;91.30;;;;;;5094910;28;20433;-53
2022/04/07 10:53:27;;;;;;;1.93;1.17;;;16.00;92.40;;;;;;5095160;28;20436;-52
2022/04/07 10:56:08;;;;;;;2.27;1.60;;;16.10;92.90;;;;;;5073202;28;20449;-53
2022/04/07 10:58:48;;;;;;;3.57;1.30;;;16.00;92.90;;;;;;5073794;28;20456;-52
2022/04/07 11:01:52;;;;;;;3.10;1.30;;;16.00;93.20;;;;;;5074412;28;20430;-52
2022/04/07 11:04:34;;;;;;;3.17;1.20;;;15.90;93.40;;;;;;5084960;28;20848;-53
2022/04/07 11:07:14;;;;;;;2.83;1.10;;;15.90;94.20;;;;;;5093951;28;20452;-53
2022/04/07 11:09:43;;;;;;;1.70;1.10;;;15.80;93.90;;;;;;5093968;28;20442;-53
2022/04/07 11:12:11;;;;;;;1.30;1.00;;;15.70;94.30;;;;;;5094745;28;20471;-52
2022/04/07 11:14:38;;;;;;;2.90;1.30;;;15.60;94.50;;;;;;5094771;28;20432;-53
2022/04/07 11:17:10;;;;;;;2.50;0.90;;;15.60;95.00;;;;;;5075419;28;20464;-53
2022/04/07 11:19:50;;;;;;;2.03;1.50;;;15.50;94.90;;;;;;5094004;28;20425;-53
2022/04/07 11:22:19;;;;;;;2.30;1.40;;;15.40;94.90;;;;;;5075895;28;20445;-53
2022/04/07 11:24:47;;;;;;;4.03;1.50;;;15.40;94.90;;;;;;5094010;28;20524;-53
2022/04/07 11:27:34;;;;;;;3.20;1.60;;;15.40;94.90;;;;;;5094341;28;20554;-53
2022/04/07 11:30:06;;;;;;;2.20;1.40;;;15.40;94.50;;;;;;5093480;28;21023;-53
2022/04/07 11:32:34;;;;;;;2.13;1.40;;;15.40;94.50;;;;;;5093860;28;20476;-53
2022/04/07 11:35:13;;;;;;;3.43;1.20;;;15.40;94.30;;;;;;5093516;28;20436;-53
2022/04/07 11:37:41;;;;;;;1.77;1.13;;;15.50;94.30;;;;;;5093423;28;20452;-53
2022/04/07 11:40:08;;;;;;;4.33;1.13;;;15.40;94.10;;;;;;5093484;28;20517;-54
2022/04/07 11:42:35;;;;;;;2.30;1.07;;;15.40;93.90;;;;;;5093814;28;20440;-53
2022/04/07 11:45:02;;;;;;;3.80;1.63;;;15.40;93.70;;;;;;5093733;28;20527;-53
2022/04/07 11:47:33;;;;;;;2.00;1.30;;;15.50;94.00;;;;;;5093579;28;20459;-53
2022/04/07 11:50:02;;;;;;;1.90;1.17;;;15.70;93.80;;;;;;5093873;28;20417;-53
2022/04/07 11:52:30;;;;;;;3.90;1.50;;;15.50;93.30;;;;;;5093263;28;20469;-53
2022/04/07 11:54:58;;;;;;;7.53;2.63;;;15.50;93.50;;;;;;5093456;28;20440;-53
2022/04/07 11:57:25;;;;;;;5.37;2.03;;;15.60;93.90;;;;;;5093300;28;20452;-53
2022/04/07 11:59:55;;;;;;;1.80;1.07;;;15.60;94.40;;;;;;5093458;28;20858;-53
2022/04/07 12:02:23;;;;;;;2.30;1.50;;;15.60;94.90;;;;;;5092984;28;20428;-53
2022/04/07 12:04:55;;;;;;;3.67;1.57;;;15.30;94.90;;;;;;5093224;28;21084;-53
2022/04/07 12:07:23;;;;;;;4.67;1.40;;;15.40;95.60;;;;;;5092956;28;20875;-52
2022/04/07 12:09:50;;;;;;;3.07;1.80;;;15.30;96.00;;;;;;5092647;28;20442;-53
2022/04/07 12:12:18;;;;;;;1.70;1.20;;;15.30;96.50;;;;;;5093336;28;20472;-53
2022/04/07 12:14:46;;;;;;;3.13;1.60;;;15.20;96.60;;;;;;5093005;28;20436;-52
2022/04/07 12:17:12;;;;;;;6.00;1.27;;;15.10;97.40;;;;;;5093021;28;21024;-52
2022/04/07 12:19:46;;;;;;;4.50;1.27;;;15.10;97.50;;;;;;5092615;28;20515;-52
2022/04/07 12:22:14;;;;;;;3.90;1.63;;;15.10;97.70;;;;;;5074911;28;20448;-52
2022/04/07 12:24:58;;;;;;;4.50;1.90;;;14.90;98.00;;;;;;5092876;28;20906;-53
2022/04/07 12:27:30;;;;;;;2.17;1.30;;;15.00;98.50;;;;;;5092682;28;20471;-52
2022/04/07 12:29:57;;;;;;;4.43;1.70;;;15.00;98.50;;;;;;5092083;28;20452;-52
2022/04/07 12:32:24;;;;;;;1.77;1.13;;;14.90;98.70;;;;;;5092480;28;20491;-53
2022/04/07 12:34:55;;;;;;;5.67;1.33;;;14.90;99.10;;;;;;5109696;28;20439;-53
2022/04/07 12:37:29;;;;;;;7.20;3.27;;;14.90;99.10;;;;;;5112784;28;20456;-52
2022/04/07 12:39:57;;;;;;;1.67;1.20;;;14.90;99.20;;;;;;5113138;28;20499;-52
2022/04/07 12:42:24;;;;;;;1.73;1.10;;;14.80;99.20;;;;;;5112650;28;20485;-52
2022/04/07 12:44:51;;;;;;;3.77;1.00;;;14.80;99.80;;;;;;5113204;28;20423;-52
2022/04/07 12:47:25;;;;;;;2.17;1.10;;;14.80;99.40;;;;;;5112682;28;20816;-52
2022/04/07 12:49:56;;;;;;;3.80;1.50;;;14.80;99.60;;;;;;5112283;28;20435;-52
2022/04/07 12:52:37;;;;;;;3.10;1.13;;;14.80;99.60;;;;;;5112305;28;20472;-53